createdAt,value
2023-05-14T00:01:38.096Z,10.90
2023-05-14T00:04:06.462Z,10.15
2023-05-14T00:06:34.561Z,11.88
2023-05-14T00:09:02.749Z,11.68
2023-05-14T00:11:32.230Z,11.70
2023-05-14T00:14:00.096Z,12.13
2023-05-14T00:16:28.074Z,12.20
2023-05-14T00:18:55.968Z,11.75
2023-05-14T00:21:23.981Z,12.57
2023-05-14T00:23:52.006Z,12.63
2023-05-14T00:26:20.487Z,12.40
2023-05-14T00:28:50.491Z,12.23
2023-05-14T00:31:18.430Z,13.18
2023-05-14T00:33:46.680Z,12.38
2023-05-14T00:36:14.560Z,12.75
2023-05-14T00:38:42.816Z,12.85
2023-05-14T00:41:10.687Z,13.00
2023-05-14T00:43:38.554Z,13.45
2023-05-14T00:46:07.979Z,13.35
2023-05-14T00:48:35.957Z,12.65
2023-05-14T00:51:04.487Z,12.77
2023-05-14T00:53:32.616Z,13.25
2023-05-14T00:56:00.820Z,12.50
2023-05-14T00:58:28.810Z,13.48
2023-05-14T01:00:56.835Z,13.80
2023-05-14T01:03:26.406Z,13.70
2023-05-14T01:06:01.121Z,13.18
2023-05-14T01:08:34.336Z,13.18
2023-05-14T01:11:06.555Z,12.85
2023-05-14T01:13:40.143Z,13.32
2023-05-14T01:16:13.501Z,13.77
2023-05-14T01:18:44.677Z,13.85
2023-05-14T01:21:35.888Z,13.45
2023-05-14T01:24:04.293Z,13.35
2023-05-14T01:26:32.521Z,14.50
2023-05-14T01:29:03.852Z,12.68
2023-05-14T01:31:33.121Z,13.90
2023-05-14T01:34:02.167Z,13.57
2023-05-14T01:36:33.017Z,14.20
2023-05-14T01:39:02.008Z,13.88
2023-05-14T01:41:30.933Z,14.10
2023-05-14T01:43:59.094Z,14.10
2023-05-14T01:46:27.057Z,13.52
2023-05-14T01:48:55.078Z,14.13
2023-05-14T01:51:23.019Z,15.07
2023-05-14T01:53:52.425Z,15.30
2023-05-14T01:56:21.797Z,14.75
2023-05-14T01:58:49.919Z,13.52
2023-05-14T02:01:17.861Z,13.68
2023-05-14T02:03:45.918Z,15.52
2023-05-14T02:06:13.809Z,14.68
2023-05-14T02:08:41.818Z,15.00
2023-05-14T02:11:11.538Z,14.80
2023-05-14T02:13:39.764Z,14.60
2023-05-14T02:16:08.303Z,14.13
2023-05-14T02:18:36.264Z,14.23
2023-05-14T02:21:04.202Z,14.93
2023-05-14T02:23:40.996Z,14.68
2023-05-14T02:26:12.976Z,15.27
2023-05-14T02:28:40.992Z,15.02
2023-05-14T02:31:09.226Z,15.07
2023-05-14T02:33:37.411Z,14.52
2023-05-14T02:36:05.616Z,14.20
2023-05-14T02:38:33.667Z,14.60
2023-05-14T02:41:01.608Z,15.23
2023-05-14T02:43:31.050Z,14.88
2023-05-14T02:45:58.844Z,14.55
2023-05-14T02:48:26.839Z,15.25
2023-05-14T02:50:54.772Z,14.98
2023-05-14T02:53:22.684Z,14.65
2023-05-14T02:55:50.749Z,14.60
2023-05-14T02:58:19.131Z,15.00
2023-05-14T03:00:54.778Z,15.48
2023-05-14T03:03:23.435Z,14.45
2023-05-14T03:05:52.000Z,15.38
2023-05-14T03:08:20.150Z,14.32
2023-05-14T03:10:48.314Z,14.90
2023-05-14T03:13:17.968Z,14.95
2023-05-14T03:15:46.966Z,15.23
2023-05-14T03:18:16.477Z,15.38
2023-05-14T03:20:44.448Z,15.18
2023-05-14T03:23:12.539Z,14.88
2023-05-14T03:25:40.477Z,15.30
2023-05-14T03:28:08.868Z,15.18
2023-05-14T03:30:37.103Z,16.40
2023-05-14T03:33:05.231Z,15.65
2023-05-14T03:35:34.535Z,16.52
2023-05-14T03:38:02.598Z,15.88
2023-05-14T03:40:30.689Z,16.35
2023-05-14T03:42:58.682Z,14.98
2023-05-14T03:45:27.077Z,16.15
2023-05-14T03:47:55.291Z,15.93
2023-05-14T03:50:25.720Z,15.57
2023-05-14T03:52:55.377Z,16.85
2023-05-14T03:55:24.097Z,17.75
2023-05-14T03:57:52.250Z,16.15
2023-05-14T04:00:21.462Z,17.42
2023-05-14T04:02:49.759Z,16.73
2023-05-14T04:05:18.204Z,16.25
2023-05-14T04:07:47.084Z,16.50
2023-05-14T04:10:16.605Z,16.05
2023-05-14T04:12:44.528Z,17.10
2023-05-14T04:15:12.958Z,17.00
2023-05-14T04:17:41.269Z,17.05
2023-05-14T04:20:10.375Z,16.65
2023-05-14T04:22:38.535Z,17.02
2023-05-14T04:25:07.444Z,16.85
2023-05-14T04:27:37.040Z,16.08
2023-05-14T04:30:06.545Z,17.42
2023-05-14T04:32:34.497Z,16.60
2023-05-14T04:35:02.533Z,17.35
2023-05-14T04:37:30.893Z,16.88
2023-05-14T04:39:58.947Z,17.48
2023-05-14T04:42:26.882Z,17.30
2023-05-14T04:44:56.066Z,17.13
2023-05-14T04:47:24.096Z,17.00
2023-05-14T04:49:52.080Z,16.17
2023-05-14T04:52:20.423Z,16.75
2023-05-14T04:54:48.367Z,17.60
2023-05-14T04:57:16.474Z,15.88
2023-05-14T04:59:44.535Z,16.52
2023-05-14T05:02:13.928Z,16.48
2023-05-14T05:04:42.078Z,17.25
2023-05-14T05:07:10.228Z,16.80
2023-05-14T05:09:38.192Z,16.95
2023-05-14T05:12:06.899Z,17.75
2023-05-14T05:14:34.875Z,16.38
2023-05-14T05:17:02.722Z,17.77
2023-05-14T05:19:42.510Z,17.95
2023-05-14T05:22:11.996Z,17.55
2023-05-14T05:24:39.910Z,16.95
2023-05-14T05:27:08.139Z,17.17
2023-05-14T05:29:36.578Z,16.77
2023-05-14T05:32:04.619Z,16.75
2023-05-14T05:34:34.195Z,17.20
2023-05-14T05:37:02.407Z,17.33
2023-05-14T05:39:34.991Z,16.50
2023-05-14T05:42:03.399Z,16.73
2023-05-14T05:44:31.410Z,16.65
2023-05-14T05:46:59.724Z,15.57
2023-05-14T05:49:27.727Z,16.35
2023-05-14T05:51:57.076Z,16.15
2023-05-14T05:54:25.950Z,17.23
2023-05-14T05:56:53.871Z,16.00
2023-05-14T05:59:21.777Z,15.30
2023-05-14T06:01:50.026Z,14.32
2023-05-14T06:04:17.954Z,15.15
2023-05-14T06:06:45.829Z,15.18
2023-05-14T06:09:15.088Z,14.85
2023-05-14T06:11:43.054Z,14.70
2023-05-14T06:14:10.969Z,14.75
2023-05-14T06:16:39.145Z,14.23
2023-05-14T06:19:08.461Z,14.15
2023-05-14T06:21:36.543Z,13.98
2023-05-14T06:24:04.454Z,14.00
2023-05-14T06:26:33.823Z,14.43
2023-05-14T06:29:01.784Z,13.43
2023-05-14T06:31:29.793Z,13.30
2023-05-14T06:33:57.661Z,13.75
2023-05-14T06:36:25.917Z,13.45
2023-05-14T06:38:53.877Z,13.35
2023-05-14T06:41:22.812Z,14.13
2023-05-14T06:43:52.213Z,13.10
2023-05-14T06:46:20.158Z,13.88
2023-05-14T06:48:48.596Z,13.65
2023-05-14T06:51:16.958Z,14.05
2023-05-14T06:53:44.967Z,13.27
2023-05-14T06:56:13.640Z,13.60
2023-05-14T06:58:41.784Z,14.23
2023-05-14T07:01:11.315Z,13.55
2023-05-14T07:03:39.495Z,14.02
2023-05-14T07:06:08.062Z,14.15
2023-05-14T07:08:36.256Z,14.55
2023-05-14T07:11:04.461Z,13.93
2023-05-14T07:13:32.517Z,14.27
2023-05-14T07:16:00.632Z,12.75
2023-05-14T07:18:30.530Z,14.57
2023-05-14T07:20:58.658Z,14.27
2023-05-14T07:23:26.868Z,14.23
2023-05-14T07:25:55.186Z,13.75
2023-05-14T07:28:23.077Z,13.68
2023-05-14T07:30:50.990Z,13.68
2023-05-14T07:33:19.053Z,12.63
2023-05-14T07:35:48.457Z,13.27
2023-05-14T07:38:16.711Z,13.65
2023-05-14T07:40:44.640Z,13.38
2023-05-14T07:43:12.857Z,13.77
2023-05-14T07:45:40.810Z,13.13
2023-05-14T07:48:08.778Z,13.15
2023-05-14T07:50:38.059Z,13.82
2023-05-14T07:53:08.325Z,13.25
2023-05-14T07:55:36.437Z,12.73
2023-05-14T07:58:04.318Z,14.32
2023-05-14T08:00:32.392Z,13.65
2023-05-14T08:03:00.636Z,13.55
2023-05-14T08:05:28.916Z,14.80
2023-05-14T08:07:56.863Z,14.75
2023-05-14T08:10:26.717Z,13.55
2023-05-14T08:12:55.113Z,14.13
2023-05-14T08:15:24.014Z,13.70
2023-05-14T08:17:53.364Z,13.32
2023-05-14T08:20:21.444Z,13.00
2023-05-14T08:22:49.489Z,12.60
2023-05-14T08:25:17.527Z,13.25
2023-05-14T08:27:46.927Z,12.93
2023-05-14T08:30:15.559Z,12.10
2023-05-14T08:32:43.549Z,11.23
2023-05-14T08:35:11.773Z,11.70
2023-05-14T08:37:39.857Z,12.32
2023-05-14T08:40:09.611Z,11.80
2023-05-14T08:42:40.604Z,13.07
2023-05-14T08:45:13.078Z,12.35
2023-05-14T08:47:41.053Z,12.48
2023-05-14T08:50:09.528Z,12.30
2023-05-14T08:52:38.298Z,10.43
2023-05-14T08:55:07.152Z,11.02
2023-05-14T08:57:35.503Z,11.10
2023-05-14T09:00:07.333Z,11.40
2023-05-14T09:02:37.023Z,11.73
2023-05-14T09:05:05.567Z,11.85
2023-05-14T09:07:33.540Z,11.63
2023-05-14T09:10:02.759Z,12.25
2023-05-14T09:12:31.183Z,12.00
2023-05-14T09:14:59.171Z,11.18
2023-05-14T09:17:27.644Z,10.45
2023-05-14T09:19:57.092Z,11.15
2023-05-14T09:22:25.071Z,10.85
2023-05-14T09:25:07.196Z,10.95
2023-05-14T09:27:35.299Z,11.35
2023-05-14T09:30:11.005Z,11.55
2023-05-14T09:32:40.319Z,11.05
2023-05-14T09:35:17.341Z,10.85
2023-05-14T09:37:46.889Z,10.05
2023-05-14T09:40:15.705Z,10.48
2023-05-14T09:42:44.179Z,10.20
2023-05-14T09:45:12.510Z,10.38
2023-05-14T09:47:40.686Z,10.20
2023-05-14T09:50:09.593Z,10.13
2023-05-14T09:52:39.505Z,9.90
2023-05-14T09:55:08.373Z,9.80
2023-05-14T09:57:36.831Z,9.93
2023-05-14T10:00:05.516Z,9.55
2023-05-14T10:02:38.277Z,9.90
2023-05-14T10:05:07.526Z,9.30
2023-05-14T10:07:40.406Z,8.93
2023-05-14T10:10:09.969Z,9.13
2023-05-14T10:12:40.137Z,9.43
2023-05-14T10:15:13.448Z,8.40
2023-05-14T10:17:42.641Z,9.85
2023-05-14T10:20:12.679Z,8.35
2023-05-14T10:22:42.217Z,8.50
2023-05-14T10:25:11.117Z,8.25
2023-05-14T10:27:39.554Z,9.73
2023-05-14T10:30:12.705Z,9.48
2023-05-14T10:32:42.041Z,8.60
2023-05-14T10:35:17.180Z,8.60
2023-05-14T10:37:47.419Z,8.02
2023-05-14T10:40:15.637Z,8.45
2023-05-14T10:42:44.651Z,7.63
2023-05-14T10:45:14.104Z,6.75
2023-05-14T10:47:44.430Z,7.13
2023-05-14T10:50:14.380Z,6.80
2023-05-14T10:52:44.040Z,7.10
2023-05-14T10:55:16.150Z,7.10
2023-05-14T10:57:45.588Z,6.63
2023-05-14T11:00:14.890Z,7.72
2023-05-14T11:02:44.646Z,7.47
2023-05-14T11:05:15.944Z,7.47
2023-05-14T11:07:45.283Z,6.45
2023-05-14T11:10:16.627Z,6.10
2023-05-14T11:12:45.639Z,7.25
2023-05-14T11:15:15.263Z,7.72
2023-05-14T11:17:44.405Z,6.97
2023-05-14T11:20:13.747Z,6.18
2023-05-14T11:22:42.639Z,7.22
2023-05-14T11:25:11.512Z,23.15
2023-05-14T11:27:42.352Z,7.85
2023-05-14T11:30:14.716Z,6.63
2023-05-14T11:32:43.307Z,11.30
2023-05-14T11:35:11.284Z,7.65
2023-05-14T11:37:39.505Z,6.55
2023-05-14T11:40:10.427Z,6.45
2023-05-14T11:42:40.039Z,5.95
2023-05-14T11:45:09.259Z,5.32
2023-05-14T11:47:37.137Z,5.32
2023-05-14T11:50:06.795Z,4.95
2023-05-14T11:52:39.403Z,4.80
2023-05-14T11:55:11.748Z,4.50
2023-05-14T11:57:42.338Z,4.20
2023-05-14T12:00:13.534Z,4.88
2023-05-14T12:02:41.720Z,4.70
2023-05-14T12:05:11.705Z,4.68
2023-05-14T12:07:40.688Z,5.25
2023-05-14T12:10:09.866Z,5.07
2023-05-14T12:12:38.035Z,5.40
2023-05-14T12:15:13.902Z,6.43
2023-05-14T12:17:42.345Z,6.47
2023-05-14T12:20:12.498Z,5.57
2023-05-14T12:22:41.680Z,5.68
2023-05-14T12:25:13.671Z,5.45
2023-05-14T12:27:42.455Z,5.40
2023-05-14T12:32:46.483Z,5.72
2023-05-14T12:35:14.625Z,5.40
2023-05-14T12:37:43.018Z,4.85
2023-05-14T12:40:11.886Z,4.40
2023-05-14T12:42:40.142Z,4.47
2023-05-14T12:45:08.960Z,5.32
2023-05-14T12:47:38.282Z,5.53
2023-05-14T12:50:07.588Z,4.85
2023-05-14T12:52:39.469Z,5.18
2023-05-14T12:55:09.107Z,5.20
2023-05-14T12:57:37.322Z,6.10
2023-05-14T13:00:07.960Z,5.28
2023-05-14T13:02:42.684Z,4.82
2023-05-14T13:10:44.800Z,4.75
2023-05-14T13:14:26.203Z,4.60
2023-05-14T13:18:10.218Z,5.30
2023-05-14T13:20:41.279Z,5.07
2023-05-14T13:23:11.029Z,4.63
2023-05-14T13:25:39.311Z,4.30
2023-05-14T13:28:07.394Z,4.65
2023-05-14T13:30:35.664Z,5.10
2023-05-14T13:33:03.950Z,4.40
2023-05-14T13:35:31.884Z,4.85
2023-05-14T13:38:01.213Z,4.50
2023-05-14T13:40:29.142Z,4.80
2023-05-14T13:42:56.994Z,4.50
2023-05-14T13:45:25.106Z,4.68
2023-05-14T13:47:53.398Z,4.78
2023-05-14T13:50:22.342Z,4.50
2023-05-14T13:52:50.299Z,4.40
2023-05-14T13:55:19.749Z,4.57
2023-05-14T13:57:47.755Z,3.70
2023-05-14T14:00:16.477Z,4.80
2023-05-14T14:02:44.451Z,3.70
2023-05-14T14:05:12.618Z,3.78
2023-05-14T14:07:40.807Z,3.15
2023-05-14T14:10:10.327Z,3.65
2023-05-14T14:12:39.789Z,4.30
2023-05-14T14:15:08.957Z,4.47
2023-05-14T14:17:37.168Z,3.40
2023-05-14T14:20:06.691Z,3.30
2023-05-14T14:22:34.808Z,3.58
2023-05-14T14:25:02.871Z,3.33
2023-05-14T14:27:32.273Z,3.40
2023-05-14T14:30:01.563Z,3.40
2023-05-14T14:32:30.494Z,3.13
2023-05-14T14:34:58.414Z,3.28
2023-05-14T14:37:26.655Z,4.00
2023-05-14T14:39:54.626Z,4.43
2023-05-14T14:42:22.476Z,4.80
2023-05-14T14:44:50.451Z,3.63
2023-05-14T14:47:19.838Z,4.03
2023-05-14T14:49:48.090Z,3.80
2023-05-14T14:52:16.173Z,4.57
2023-05-14T14:54:44.321Z,4.10
2023-05-14T14:57:12.375Z,4.43
2023-05-14T14:59:40.506Z,4.38
2023-05-14T15:02:09.326Z,4.63
2023-05-14T15:04:38.948Z,5.07
2023-05-14T15:07:07.004Z,5.10
2023-05-14T15:09:35.097Z,4.90
2023-05-14T15:12:03.177Z,5.22
2023-05-14T15:14:31.032Z,4.80
2023-05-14T15:16:59.184Z,5.28
2023-05-14T15:19:27.044Z,5.43
2023-05-14T15:21:56.621Z,5.90
2023-05-14T15:24:26.230Z,5.80
2023-05-14T15:26:54.283Z,5.03
2023-05-14T15:29:22.526Z,5.00
2023-05-14T15:31:50.527Z,5.13
2023-05-14T15:34:18.802Z,5.28
2023-05-14T15:36:46.758Z,5.40
2023-05-14T15:39:16.176Z,5.38
2023-05-14T15:41:44.031Z,5.80
2023-05-14T15:44:12.042Z,5.45
2023-05-14T15:46:40.044Z,6.28
2023-05-14T15:49:08.015Z,5.95
2023-05-14T15:51:36.253Z,6.43
2023-05-14T15:54:04.202Z,5.88
2023-05-14T15:56:33.402Z,5.80
2023-05-14T15:59:01.600Z,6.88
2023-05-14T16:01:29.657Z,6.70
2023-05-14T16:03:57.703Z,5.90
2023-05-14T16:06:26.881Z,6.93
2023-05-14T16:08:56.108Z,7.03
2023-05-14T16:11:31.337Z,6.68
2023-05-14T16:14:24.349Z,6.95
2023-05-14T16:17:24.694Z,6.40
2023-05-14T16:19:56.783Z,7.20
2023-05-14T16:22:36.367Z,6.72
2023-05-14T16:25:09.081Z,6.85
2023-05-14T16:28:06.314Z,6.93
2023-05-14T16:30:51.319Z,6.97
2023-05-14T16:33:21.445Z,7.40
2023-05-14T16:39:08.353Z,6.60
2023-05-14T16:45:31.576Z,8.15
2023-05-14T16:48:31.411Z,8.27
2023-05-14T16:51:22.764Z,7.63
2023-05-14T16:53:55.716Z,7.40
2023-05-14T16:56:24.482Z,6.78
2023-05-14T16:58:52.363Z,6.80
2023-05-14T17:01:27.049Z,6.70
2023-05-14T17:04:16.530Z,6.57
2023-05-14T17:07:04.142Z,7.20
2023-05-14T17:12:15.036Z,7.30
2023-05-14T17:14:48.241Z,7.80
2023-05-14T17:17:18.573Z,7.53
2023-05-14T17:19:51.451Z,7.43
2023-05-14T17:22:23.080Z,7.10
2023-05-14T17:24:50.934Z,6.93
2023-05-14T17:27:18.970Z,6.05
2023-05-14T17:29:46.937Z,5.57
2023-05-14T17:32:18.919Z,6.32
2023-05-14T17:34:52.801Z,6.47
2023-05-14T17:37:24.554Z,6.97
2023-05-14T17:39:53.655Z,7.28
2023-05-14T17:42:22.028Z,6.28
2023-05-14T17:44:49.856Z,7.30
2023-05-14T17:47:20.683Z,6.47
2023-05-14T17:49:51.032Z,7.40
2023-05-14T17:52:41.614Z,6.20
2023-05-14T17:55:21.124Z,6.82
2023-05-14T17:57:58.030Z,7.47
2023-05-14T18:00:26.368Z,6.72
2023-05-14T18:03:14.314Z,7.07
2023-05-14T18:05:46.169Z,7.97
2023-05-14T18:08:19.619Z,8.43
2023-05-14T18:13:23.738Z,9.13
2023-05-14T18:15:54.274Z,9.90
2023-05-14T18:18:28.875Z,9.05
2023-05-14T18:20:58.267Z,9.18
2023-05-14T18:23:35.244Z,9.48
2023-05-14T18:26:05.696Z,9.85
2023-05-14T18:28:42.655Z,9.18
2023-05-14T18:31:15.804Z,9.18
2023-05-14T18:33:45.420Z,9.55
2023-05-14T18:36:19.107Z,9.45
2023-05-14T18:38:53.011Z,9.60
2023-05-14T18:41:34.293Z,9.57
2023-05-14T18:44:03.266Z,9.40
2023-05-14T18:46:33.282Z,8.55
2023-05-14T18:49:08.136Z,8.32
2023-05-14T18:51:51.467Z,7.95
2023-05-14T18:54:23.907Z,7.75
2023-05-14T18:56:51.770Z,7.22
2023-05-14T18:59:19.652Z,6.57
2023-05-14T19:01:47.730Z,5.90
2023-05-14T19:04:16.020Z,5.60
2023-05-14T19:06:45.425Z,6.65
2023-05-14T19:09:14.804Z,5.50
2023-05-14T19:11:42.688Z,6.55
2023-05-14T19:14:11.523Z,6.25
2023-05-14T19:16:39.360Z,6.20
2023-05-14T19:19:07.514Z,5.75
2023-05-14T19:21:35.744Z,6.80
2023-05-14T19:24:06.026Z,7.45
2023-05-14T19:26:34.078Z,6.43
2023-05-14T19:29:02.169Z,6.47
2023-05-14T19:31:30.224Z,6.82
2023-05-14T19:33:58.482Z,7.13
2023-05-14T19:36:29.527Z,6.95
2023-05-14T19:38:57.759Z,7.20
2023-05-14T19:41:27.783Z,7.25
2023-05-14T19:43:55.939Z,7.43
2023-05-14T19:46:23.916Z,6.82
2023-05-14T19:48:52.351Z,7.03
2023-05-14T19:51:20.288Z,7.35
2023-05-14T19:53:48.283Z,7.47
2023-05-14T19:56:16.218Z,7.88
2023-05-14T19:58:45.641Z,8.30
2023-05-14T20:01:14.627Z,8.48
2023-05-14T20:03:42.714Z,9.15
2023-05-14T20:06:11.511Z,9.32
2023-05-14T20:08:39.898Z,9.75
2023-05-14T20:11:08.162Z,8.60
2023-05-14T20:13:36.773Z,9.23
2023-05-14T20:16:06.870Z,9.18
2023-05-14T20:18:34.967Z,9.30
2023-05-14T20:21:02.880Z,9.35
2023-05-14T20:23:31.022Z,9.88
2023-05-14T20:26:01.879Z,10.23
2023-05-14T20:28:29.966Z,9.63
2023-05-14T20:30:59.090Z,10.30
2023-05-14T20:33:29.282Z,10.50
2023-05-14T20:35:57.176Z,10.15
2023-05-14T20:38:25.794Z,10.35
2023-05-14T20:40:53.699Z,9.90
2023-05-14T20:43:21.574Z,11.80
2023-05-14T20:45:49.573Z,10.50
2023-05-14T20:48:17.798Z,10.43
2023-05-14T20:50:47.084Z,10.68
2023-05-14T20:53:15.071Z,11.20
2023-05-14T20:55:43.044Z,11.43
2023-05-14T20:58:10.931Z,11.40
2023-05-14T21:00:39.210Z,12.02
2023-05-14T21:03:07.263Z,12.02
2023-05-14T21:05:35.254Z,11.48
2023-05-14T21:08:04.693Z,10.98
2023-05-14T21:10:32.714Z,11.73
2023-05-14T21:13:00.781Z,11.70
2023-05-14T21:15:30.630Z,12.00
2023-05-14T21:17:58.557Z,11.95
2023-05-14T21:20:26.567Z,12.00
2023-05-14T21:22:54.437Z,12.68
2023-05-14T21:25:23.946Z,11.55
2023-05-14T21:27:52.010Z,11.70
2023-05-14T21:30:19.989Z,11.90
2023-05-14T21:32:48.030Z,12.40
2023-05-14T21:35:16.059Z,12.43
2023-05-14T21:37:43.956Z,11.77
2023-05-14T21:40:13.240Z,12.48
2023-05-14T21:42:42.646Z,12.10
2023-05-14T21:45:11.417Z,12.68
2023-05-14T21:47:39.616Z,12.68
2023-05-14T21:50:08.691Z,12.63
2023-05-14T21:52:38.310Z,12.65
2023-05-14T21:55:06.946Z,12.10
2023-05-14T21:57:35.003Z,12.73
2023-05-14T22:00:07.937Z,12.38
2023-05-14T22:02:36.086Z,13.25
2023-05-14T22:05:04.195Z,11.60
2023-05-14T22:07:32.842Z,12.77
2023-05-14T22:10:01.392Z,11.82
2023-05-14T22:12:29.438Z,12.20
2023-05-14T22:14:57.349Z,11.82
2023-05-14T22:17:27.979Z,12.88
2023-05-14T22:19:56.256Z,11.95
2023-05-14T22:22:24.115Z,11.82
2023-05-14T22:24:51.906Z,12.23
2023-05-14T22:27:20.012Z,11.45
2023-05-14T22:29:47.841Z,13.65
2023-05-14T22:32:15.818Z,13.40
2023-05-14T22:34:45.167Z,13.07
2023-05-14T22:37:13.128Z,13.70
2023-05-14T22:39:40.997Z,12.70
2023-05-14T22:42:09.280Z,13.73
2023-05-14T22:44:37.530Z,13.65
2023-05-14T22:47:06.439Z,13.45
2023-05-14T22:49:34.481Z,13.18
2023-05-14T22:52:03.922Z,13.43
2023-05-14T22:54:31.979Z,12.82
2023-05-14T22:56:59.981Z,13.85
2023-05-14T22:59:28.146Z,13.55
2023-05-14T23:01:56.091Z,14.40
2023-05-14T23:04:24.176Z,13.88
2023-05-14T23:06:52.238Z,13.73
2023-05-14T23:09:21.510Z,13.50
2023-05-14T23:11:49.650Z,13.63
2023-05-14T23:14:18.068Z,13.75
2023-05-14T23:16:46.258Z,14.05
2023-05-14T23:19:14.170Z,13.90
2023-05-14T23:21:42.334Z,14.65
2023-05-14T23:24:10.421Z,14.55
2023-05-14T23:26:39.993Z,15.02
2023-05-14T23:29:07.939Z,15.27
2023-05-14T23:31:35.833Z,15.82
2023-05-14T23:34:03.989Z,15.55
2023-05-14T23:36:32.644Z,17.42
2023-05-14T23:39:00.767Z,15.43
2023-05-14T23:41:28.596Z,15.55
2023-05-14T23:43:57.833Z,16.75
2023-05-14T23:46:26.022Z,16.80
2023-05-14T23:48:57.014Z,17.10
2023-05-14T23:51:25.331Z,17.38
2023-05-14T23:53:58.223Z,17.02
2023-05-14T23:56:27.560Z,17.98
2023-05-14T23:58:56.906Z,17.30
